Latest Weather Observations for Wudinna Airport

IDS60801

Issued at 9:51 am CDT Wednesday 16 January 2019 (issued every 10 minutes, with the page automatically refreshed every 10 minutes)

About weather observations | Map of weather stations | Latest weather observations for SA | Other Formats
Station Details ID: 018083 Name: WUDINNA AERO Lat: -33.04 Lon: 135.45 Height: 86.4 m
Data from the previous 72 hours. | See also: Recent months at Wudinna Airport
Date/Time
CDT
Temp
°C
App
Temp
°C
Dew
Point
°C
Rel
Hum
%
Delta-T
°C
Wind Press
QNH
hPa
Press
MSL
hPa
Rain since
9am
mm
Dir  Spd
km/h
Gust
km/h
Spd
kts
Gust
kts
16/09:30am 26.0 24.5 13.2 45 7.5 E 13 17 7 9 1008.2 1007.7 0.0
16/09:00am 25.1 24.4 13.3 48 6.9 ESE 9 17 5 9 1008.7 1008.3 0.0
16/08:30am 24.1 23.5 13.6 52 6.2 ESE 9 13 5 7 1009.0 1008.6 0.0
16/08:00am 23.5 23.8 13.4 53 5.9 ENE 4 9 2 5 1009.3 1008.9 0.0
16/07:30am 23.2 22.6 13.4 54 5.7 ESE 9 13 5 7 1008.3 1007.8 0.0
16/07:00am 22.9 22.7 13.1 54 5.7 E 6 11 3 6 1008.1 1007.6 0.0
16/06:30am 22.8 22.4 13.0 54 5.7 SE 7 9 4 5 1007.9 1007.4 0.0
16/06:00am 22.7 21.9 12.9 54 5.7 SE 9 13 5 7 1007.8 1007.3 0.0
16/05:30am 22.4 20.3 12.4 53 5.7 S 15 20 8 11 1007.7 1007.2 0.0
16/05:00am 22.5 21.1 10.9 48 6.4 SSE 9 13 5 7 1007.3 1006.8 0.0
16/04:30am 22.8 21.0 10.9 47 6.6 ESE 11 15 6 8 1006.3 1005.9 0.0
16/04:00am 23.1 20.9 10.9 46 6.8 ENE 13 22 7 12 1006.7 1006.3 0.0
16/03:30am 23.2 21.2 10.3 44 7.1 SE 11 17 6 9 1007.6 1007.1 0.0
16/03:00am 23.3 22.1 9.7 42 7.4 ENE 6 11 3 6 1009.3 1008.9 0.0
16/02:30am 23.4 21.7 9.8 42 7.4 S 9 15 5 8 1009.6 1009.2 0.0
16/02:00am 23.4 20.6 8.7 39 7.9 S 13 17 7 9 1009.2 1008.8 0.0
16/01:30am 23.6 21.6 8.8 39 8.0 S 9 15 5 8 1009.3 1008.9 0.0
16/01:00am 24.2 21.7 8.2 36 8.5 ESE 11 17 6 9 1009.4 1009.0 0.0
16/12:30am 24.5 21.4 8.9 37 8.5 SE 15 24 8 13 1009.6 1009.2 0.0
16/12:00am 25.4 21.8 8.4 34 9.2 SE 17 24 9 13 1009.6 1009.2 0.0
 
Date/Time
CDT
Temp
°C
App
Temp
°C
Dew
Point
°C
Rel
Hum
%
Delta-T
°C
Wind Press
QNH
hPa
Press
MSL
hPa
Rain since
9am
mm
Dir  Spd
km/h
Gust
km/h
Spd
kts
Gust
kts
15/11:30pm 27.2 23.0 8.1 30 10.4 SE 20 30 11 16 1009.3 1008.9 0.0
15/11:00pm 27.1 24.1 7.5 29 10.5 SSE 13 19 7 10 1009.6 1009.2 0.0
15/10:30pm 27.7 24.0 6.5 26 11.2 S 15 22 8 12 1009.4 1009.0 0.0
15/10:00pm 29.1 24.9 5.9 23 12.2 S 17 24 9 13 1009.1 1008.7 0.0
15/09:30pm 29.0 24.4 6.4 24 12.0 S 20 35 11 19 1009.0 1008.6 0.0
15/09:00pm 30.3 24.6 6.9 23 12.7 S 26 43 14 23 1008.6 1008.1 0.0
15/08:45pm 31.7 25.1 6.0 20 13.8 SSW 30 41 16 22 1008.8 1008.4 0.0
15/08:30pm 37.2 32.6 1.8 11 18.3 SE 15 22 8 12 1008.3 1007.8 0.0
15/08:00pm 38.1 32.5 1.2 10 19.0 ESE 20 28 11 15 1007.8 1007.3 0.0
15/07:30pm 39.0 33.5 1.9 10 19.4 ESE 20 32 11 17 1007.3 1006.8 0.0
15/07:00pm 39.6 34.2 2.3 10 19.7 ESE 20 33 11 18 1007.0 1006.6 0.0
15/06:30pm 41.3 34.3 2.1 9 20.9 ESE 28 37 15 20 1006.6 1006.2 0.0
15/06:00pm 43.9 38.5 -1.6 6 23.3 SSW 17 28 9 15 1006.4 1006.0 0.0
15/05:30pm 44.3 38.5 -1.3 6 23.5 SSE 19 26 10 14 1006.4 1006.0 0.0
15/05:00pm 44.8 39.8 -1.0 6 23.7 S 15 24 8 13 1006.5 1006.1 0.0
15/04:30pm 44.3 38.3 -1.3 6 23.5 SSW 20 35 11 19 1006.6 1006.2 0.0
15/04:00pm 43.2 38.7 0.0 7 22.5 SE 13 20 7 11 1006.8 1006.4 0.0
15/03:30pm 44.0 38.3 0.6 7 22.9 S 20 32 11 17 1007.4 1006.9 0.0
15/03:00pm 43.3 36.4 0.1 7 22.6 SSW 26 37 14 20 1007.7 1007.2 0.0
15/02:30pm 42.5 36.2 1.3 8 21.8 SSW 24 32 13 17 1008.1 1007.6 0.0
15/02:00pm 42.2 36.2 1.1 8 21.6 S 22 28 12 15 1008.3 1007.8 0.0
15/01:30pm 41.7 33.8 2.4 9 21.0 S 33 44 18 24 1008.6 1008.1 0.0
15/01:05pm 41.4 33.4 3.7 10 20.5 SSW 35 54 19 29 1008.5 1008.0 0.0
15/01:00pm 42.1 33.5 2.7 9 21.2 S 37 50 20 27 1008.5 1008.0 0.0
15/12:48pm 43.6 37.4 2.1 8 22.3 WSW 24 48 13 26 1008.3 1007.8 0.0
15/12:30pm 44.6 40.0 -1.1 6 23.6 SW 13 33 7 18 1008.4 1007.9 0.0
15/12:00pm 44.0 38.6 -1.5 6 23.3 W 17 26 9 14 1008.4 1007.9 0.0
15/11:30am 42.8 38.4 -2.4 6 22.7 WNW 11 19 6 10 1008.6 1008.1 0.0
15/11:00am 42.3 37.1 -2.7 6 22.4 NW 15 20 8 11 1008.7 1008.3 0.0
15/10:30am 41.1 35.9 0.3 8 21.1 N 17 24 9 13 1008.7 1008.3 0.0
15/10:00am 39.8 34.4 1.0 9 20.1 N 19 24 10 13 1008.8 1008.4 0.0
15/09:50am 38.3 35.4 2.7 11 18.8 SSW 7 17 4 9 1008.9 1008.5 0.0
15/09:30am 32.3 29.2 1.4 14 15.4 S 7 9 4 5 1009.2 1008.8 0.0
15/09:00am 30.2 25.5 0.7 15 14.4 SSW 15 17 8 9 1009.2 1008.8 0.0
15/08:30am 28.5 25.5 1.1 17 13.3 S 6 7 3 4 1009.0 1008.6 0.0
15/08:00am 24.7 21.5 0.9 21 11.2 S 7 11 4 6 1008.8 1008.4 0.0
15/07:30am 22.0 19.3 0.5 24 9.8 SE 4 7 2 4 1008.5 1008.0 0.0
15/07:00am 19.1 15.7 -0.3 27 8.5 N 7 9 4 5 1008.3 1007.8 0.0
15/06:30am 18.9 16.9 0.0 28 8.3 CALM 0 0 0 0 1008.3 1007.8 0.0
15/06:00am 19.4 17.0 -0.1 27 8.6 SSW 2 7 1 4 1008.2 1007.7 0.0
15/05:30am 20.6 17.2 -0.7 24 9.4 S 7 11 4 6 1008.0 1007.5 0.0
15/05:00am 25.3 21.5 -0.7 18 11.9 NE 9 13 5 7 1007.8 1007.3 0.0
15/04:30am 25.5 21.7 -0.5 18 12.0 NE 9 9 5 5 1007.9 1007.4 0.0
15/04:00am 25.4 21.2 -0.6 18 11.9 NE 11 13 6 7 1007.8 1007.3 0.0
15/03:30am 25.6 22.2 -0.5 18 12.0 ENE 7 9 4 5 1008.2 1007.7 0.0
15/03:00am 25.5 22.1 -0.5 18 12.0 ENE 7 11 4 6 1008.5 1008.0 0.0
15/02:30am 25.5 21.7 -0.5 18 12.0 NE 9 13 5 7 1008.8 1008.4 0.0
15/02:00am 26.2 21.9 -1.6 16 12.6 ENE 11 15 6 8 1009.0 1008.6 0.0
15/01:30am 25.8 21.1 -1.9 16 12.5 ENE 13 15 7 8 1009.2 1008.8 0.0
15/01:00am 25.4 21.5 -1.4 17 12.1 ENE 9 11 5 6 1009.5 1009.1 0.0
15/12:30am 23.4 20.1 -0.1 21 10.7 E 7 11 4 6 1009.7 1009.3 0.0
15/12:00am 25.1 22.0 -0.1 19 11.6 NE 6 9 3 5 1009.9 1009.5 0.0
 
Date/Time
CDT
Temp
°C
App
Temp
°C
Dew
Point
°C
Rel
Hum
%
Delta-T
°C
Wind Press
QNH
hPa
Press
MSL
hPa
Rain since
9am
mm
Dir  Spd
km/h
Gust
km/h
Spd
kts
Gust
kts
14/11:30pm 25.8 22.3 -1.1 17 12.3 NE 7 9 4 5 1009.9 1009.5 0.0
14/11:00pm 29.2 25.1 -0.1 15 13.9 ENE 11 17 6 9 1010.0 1009.6 0.0
14/10:30pm 29.5 25.5 0.2 15 14.1 E 11 17 6 9 1010.1 1009.7 0.0
14/10:00pm 30.3 25.8 -0.1 14 14.6 E 13 17 7 9 1010.0 1009.6 0.0
14/09:30pm 31.8 27.1 1.0 14 15.2 E 15 20 8 11 1009.9 1009.5 0.0
14/09:00pm 33.3 28.8 2.2 14 15.8 ESE 15 19 8 10 1009.9 1009.5 0.0
14/08:30pm 35.4 30.5 1.7 12 17.2 SE 17 24 9 13 1009.5 1009.1 0.0
14/08:00pm 36.8 31.2 -2.8 8 19.0 S 17 22 9 12 1009.3 1008.9 0.0
14/07:30pm 37.7 32.2 -2.2 8 19.5 S 17 22 9 12 1008.9 1008.5 0.0
14/07:00pm 38.6 32.6 -3.3 7 20.2 SSW 19 26 10 14 1008.7 1008.3 0.0
14/06:30pm 38.4 32.4 -3.4 7 20.1 S 19 22 10 12 1008.5 1008.0 0.0
14/06:00pm 38.5 32.3 -3.4 7 20.2 SSW 20 26 11 14 1008.5 1008.0 0.0
14/05:30pm 38.9 32.9 -3.1 7 20.4 SSW 19 26 10 14 1008.5 1008.0 0.0
14/05:00pm 40.0 33.7 -4.3 6 21.2 S 20 30 11 16 1008.6 1008.1 0.0
14/04:30pm 39.9 32.0 -4.4 6 21.2 SSW 28 39 15 21 1008.6 1008.1 0.0
14/04:00pm 40.8 33.3 -9.1 4 22.3 SW 24 35 13 19 1009.0 1008.6 0.0
14/03:30pm 41.2 33.7 -8.8 4 22.6 SSW 24 39 13 21 1009.1 1008.7 0.0
14/03:00pm 41.1 32.1 -6.0 5 22.2 SW 33 44 18 24 1009.1 1008.7 0.0
14/02:30pm 41.5 33.1 -1.2 7 21.7 SW 33 50 18 27 1008.9 1008.5 0.0
14/02:00pm 41.5 35.5 -1.2 7 21.6 SW 20 37 11 20 1009.0 1008.6 0.0
14/01:30pm 41.0 34.4 -3.6 6 21.7 SW 22 33 12 18 1009.4 1009.0 0.0
14/01:00pm 41.1 35.1 -1.5 7 21.4 SW 20 43 11 23 1009.6 1009.2 0.0
14/12:30pm 39.5 33.6 -2.6 7 20.6 SW 19 33 10 18 1009.9 1009.5 0.0
14/12:00pm 39.0 33.2 -1.2 8 20.1 SW 19 28 10 15 1009.9 1009.5 0.0
14/11:30am 38.5 34.8 0.0 9 19.5 WSW 9 15 5 8 1009.8 1009.4 0.0
14/11:00am 37.2 34.0 0.5 10 18.6 NNE 7 13 4 7 1009.9 1009.5 0.0
14/10:30am 35.9 32.3 0.9 11 17.7 N 9 13 5 7 1010.3 1009.9 0.0
14/10:00am 33.7 29.6 2.5 14 16.0 NNW 13 17 7 9 1010.3 1009.9 0.0
14/09:30am 30.3 27.2 3.4 18 13.7 SE 9 11 5 6 1010.4 1010.0 0.0
14/09:00am 27.8 24.7 3.5 21 12.2 SE 9 13 5 7 1010.5 1010.1 0.0
14/08:30am 24.9 22.7 5.2 28 10.0 SW 6 9 3 5 1010.5 1010.1 0.0
14/08:00am 22.3 20.1 5.3 33 8.5 E 6 9 3 5 1010.5 1010.1 0.0
14/07:57am 23.4 21.1 4.9 30 9.3 E 6 7 3 4 1010.5 1010.1 0.0
14/07:30am 18.4 15.9 6.6 46 5.9 NE 9 13 5 7 1010.4 1010.0 0.0
14/07:00am 13.7 13.0 6.8 63 3.3 CALM 0 4 0 2 1010.7 1010.3 0.0
14/06:30am 11.6 8.8 5.0 64 3.0 E 9 11 5 6 1010.5 1010.1 0.0
14/06:00am 11.9 10.6 5.8 66 2.9 ENE 2 7 1 4 1010.4 1010.0 0.0
14/05:30am 11.8 9.0 5.0 63 3.1 ENE 9 9 5 5 1010.4 1010.0 0.0
14/05:00am 12.2 10.9 5.8 65 3.0 NE 2 9 1 5 1010.6 1010.2 0.0
14/04:30am 11.9 10.6 3.9 58 3.6 CALM 0 0 0 0 1010.7 1010.3 0.0
14/04:00am 12.8 11.0 5.2 60 3.5 ENE 4 6 2 3 1011.0 1010.6 0.0
14/03:30am 12.2 9.2 3.9 57 3.7 NE 9 11 5 6 1011.2 1010.8 0.0
14/03:00am 13.5 12.0 4.9 56 4.0 NE 2 7 1 4 1011.6 1011.2 0.0
14/02:30am 14.1 12.9 4.7 53 4.4 CALM 0 0 0 0 1012.0 1011.6 0.0
14/02:00am 15.4 14.6 6.4 55 4.4 CALM 0 0 0 0 1012.5 1012.1 0.0
14/01:30am 17.3 15.2 5.9 47 5.6 ESE 6 7 3 4 1012.6 1012.2 0.0
14/01:00am 19.3 17.1 7.7 47 6.0 ESE 9 13 5 7 1012.9 1012.5 0.0
14/12:30am 20.4 17.3 7.4 43 6.7 E 13 19 7 10 1013.0 1012.6 0.0
14/12:00am 21.2 18.0 6.7 39 7.4 ESE 13 17 7 9 1013.3 1012.9 0.0
 
Date/Time
CDT
Temp
°C
App
Temp
°C
Dew
Point
°C
Rel
Hum
%
Delta-T
°C
Wind Press
QNH
hPa
Press
MSL
hPa
Rain since
9am
mm
Dir  Spd
km/h
Gust
km/h
Spd
kts
Gust
kts
13/11:30pm 21.8 18.7 5.7 35 8.1 SE 11 15 6 8 1013.6 1013.2 0.0
13/11:00pm 23.0 19.6 5.9 33 8.7 SE 13 22 7 12 1013.8 1013.4 0.0
13/10:30pm 24.1 19.9 5.5 30 9.4 SE 17 24 9 13 1013.8 1013.4 0.0
13/10:00pm 25.2 20.6 5.4 28 10.1 SE 19 26 10 14 1013.7 1013.3 0.0
13/09:30pm 26.5 22.3 3.7 23 11.4 SE 15 20 8 11 1013.5 1013.1 0.0
13/09:00pm 28.2 23.0 2.4 19 12.7 SE 19 24 10 13 1013.1 1012.7 0.0
13/08:30pm 30.1 24.0 0.6 15 14.3 SE 22 32 12 17 1012.9 1012.5 0.0
13/08:00pm 31.9 25.4 0.1 13 15.5 SE 24 33 13 18 1012.6 1012.2 0.0
13/07:30pm 33.2 27.2 1.1 13 16.0 SE 22 33 12 18 1012.2 1011.8 0.0
13/07:00pm 34.0 27.2 0.6 12 16.6 SE 26 35 14 19 1012.0 1011.6 0.0
13/06:30pm 34.7 28.3 1.1 12 16.9 SSE 24 35 13 19 1011.9 1011.5 0.0
13/06:00pm 35.6 28.8 0.6 11 17.6 SSE 26 43 14 23 1011.7 1011.3 0.0
13/05:30pm 36.7 30.6 2.7 12 17.8 SSE 24 32 13 17 1012.0 1011.6 0.0
13/05:00pm 36.9 31.2 2.8 12 17.9 SE 22 30 12 16 1012.1 1011.7 0.0
13/04:30pm 37.7 33.0 3.4 12 18.2 SSE 17 30 9 16 1012.4 1012.0 0.0
13/04:00pm 37.2 32.1 3.1 12 18.0 S 19 28 10 15 1012.6 1012.2 0.0
13/03:30pm 37.7 33.2 2.2 11 18.5 SSE 15 26 8 14 1013.0 1012.6 0.0
13/03:00pm 36.6 31.2 2.6 12 17.7 S 20 28 11 15 1013.5 1013.1 0.0
13/02:30pm 36.1 32.2 1.0 11 17.8 SSE 11 20 6 11 1014.0 1013.6 0.0
13/02:00pm 34.8 29.9 2.3 13 16.7 SE 17 30 9 16 1014.4 1014.0 0.0
13/01:30pm 33.6 28.6 3.4 15 15.7 ESE 19 26 10 14 1014.8 1014.4 0.0
13/01:00pm 32.7 28.3 4.5 17 14.8 ESE 17 26 9 14 1015.5 1015.1 0.0
13/12:30pm 31.3 26.9 6.4 21 13.4 ESE 19 32 10 17 1016.0 1015.6 0.0
13/12:00pm 30.1 25.9 7.3 24 12.4 ESE 19 30 10 16 1016.5 1016.1 0.0
13/11:30am 28.4 24.0 7.6 27 11.2 ESE 20 30 11 16 1016.8 1016.4 0.0
13/11:00am 26.6 22.5 8.6 32 9.8 ESE 20 28 11 15 1017.5 1017.1 0.0
13/10:30am 25.3 21.7 10.4 39 8.3 ESE 20 28 11 15 1018.0 1017.6 0.0
13/10:00am 23.9 20.5 11.3 45 7.1 ESE 20 30 11 16 1018.3 1017.9 0.0

Other Formats:

Comma delimited format used in spreadsheet applications
http://www.bom.gov.au/fwo/IDS60801/IDS60801.95654.axf

JavaScript Object Notation format (JSON) in row-major order
http://www.bom.gov.au/fwo/IDS60801/IDS60801.95654.json